Nevskiy-22 — UFSO — position and weather

sailwx.info

Track history (hours):
 
Tides and Currents Weather Stations Pressure Air Temp Water Temp Dewpoint Dewpoint Depression Visibility Wind Speed Wind Dir Waves Ship Positions

Nevskiy-22

Last reported at 2015-May-29 16:33 UTC. Time now 2015-May-29 20:31 UTC.
Position N 59°56' E 030°24'.

Length 111 m; draft 3 m.

Type: Cargo ship. MMSI: 273449940.

Date/timePositionNaut miles runAvg speedWind from/ knotsBaromVisibWave heightAir tempDewpointWater temp
2015-May-29 16:33N 59°56' E 030°24'4 4.0
2015-May-29 15:33N 59°57' E 030°16'6 5.9
2015-May-29 14:33N 59°56' E 030°05'7 6.8
2015-May-29 13:33N 59°57' E 029°51'6 0.4
2015-May-28 23:33N 59°60' E 029°40'9 8.7
2015-May-28 22:33N 59°56' E 029°56'8 8.1
2015-May-28 21:33N 59°58' E 030°12'2 1.8
2015-May-28 20:33N 59°57' E 030°15'1 0.6
2015-May-28 19:32N 59°57' E 030°16'6 1.7
2015-May-28 16:09N 59°54' E 030°26'3 5.1
2015-May-28 15:31N 59°57' E 030°24'5 4.9
2015-May-28 14:33N 59°58' E 030°14'7 6.6
2015-May-28 13:33N 59°56' E 030°02'7 6.9
2015-May-28 12:33N 59°58' E 029°48'7 6.7
2015-May-28 11:31N 60°00' E 029°36'1 0.1
2015-May-27 21:33N 60°00' E 029°33'8 7.7
2015-May-27 20:33N 59°58' E 029°48'8 7.6
2015-May-27 19:33N 59°56' E 030°03'7 7.1
2015-May-27 18:33N 59°57' E 030°17'4 0.9
2015-May-27 14:33N 59°57' E 030°24'4 4.4
2015-May-27 13:33N 59°57' E 030°15'7 7.1
2015-May-27 12:33N 59°56' E 030°02'9 8.5
2015-May-27 11:33N 59°59' E 029°46'7 0.4
2015-May-26 20:21N 59°60' E 029°33'6 7.5
2015-May-26 19:33N 59°59' E 029°45'8 8.0
2015-May-26 18:33N 59°56' E 029°59'8 7.7
2015-May-26 17:33N 59°52' E 030°13'0 0.4
2015-May-26 16:33N 59°52' E 030°13'0 0.0
2015-May-26 15:33N 59°52' E 030°13'0 0.3
2015-May-26 14:33N 59°52' E 030°13'6 5.9
2015-May-26 13:33N 59°55' E 030°02'3 2.7
2015-May-26 12:33N 59°56' E 029°57'0 0.0
2015-May-26 11:33N 59°56' E 029°57'5 5.3
2015-May-26 10:33N 59°58' E 029°47'5 0.3
2015-May-25 20:33N 59°60' E 029°39'8 8.0
2015-May-25 19:33N 59°57' E 029°54'8 8.1
2015-May-25 18:33N 59°54' E 030°08'3 3.0
2015-May-25 17:33N 59°52' E 030°13'0 0.0
2015-May-25 16:33N 59°52' E 030°13'1 0.8
2015-May-25 15:33N 59°52' E 030°12'0 0.0
2015-May-25 14:33N 59°52' E 030°12'0 0.0
2015-May-25 13:32N 59°52' E 030°12'4 4.1
2015-May-25 12:33N 59°54' E 030°05'8 7.6
2015-May-25 11:32N 59°57' E 029°51'4 0.3
2015-May-24 20:33N 59°59' E 029°44'8 8.1
2015-May-24 19:33N 59°56' E 029°59'8 7.7
2015-May-24 18:32N 59°58' E 030°14'7 0.9
2015-May-24 11:08N 59°54' E 030°26'3 5.3
2015-May-24 10:32N 59°57' E 030°24'5 4.7
2015-May-24 09:32N 59°58' E 030°14'7 6.6
2015-May-24 08:32N 59°56' E 030°02'7 7.0
2015-May-24 07:32N 59°58' E 029°48'2 0.2
2015-May-23 18:24N 59°59' E 029°45'7 8.3
2015-May-23 17:33N 59°56' E 029°58'8 8.2
2015-May-23 16:33N 59°58' E 030°14'5 1.2
2015-May-23 12:12N 59°57' E 030°24'3 4.9
2015-May-23 11:33N 59°57' E 030°18'6 5.5
2015-May-23 10:33N 59°57' E 030°07'7 6.6
2015-May-23 09:33N 59°57' E 029°53'7 0.5
2015-May-22 19:18N 59°60' E 029°41'7 8.7
2015-May-22 18:30N 59°57' E 029°54'8 7.9
2015-May-22 17:33N 59°57' E 030°09'3 3.0
2015-May-22 16:30N 59°57' E 030°15'0 0.0
2015-May-22 15:33N 59°57' E 030°15'0 0.0
2015-May-22 14:33N 59°57' E 030°15'5 4.2
2015-May-22 13:27N 59°56' E 030°24'1 0.4
2015-May-22 09:27N 59°57' E 030°22'4 3.6
2015-May-22 08:27N 59°57' E 030°15'5 5.6
2015-May-22 07:33N 59°56' E 030°05'7 6.6
2015-May-22 06:33N 59°57' E 029°52'3 0.2
2015-May-21 16:15N 59°58' E 029°47'6 7.0
2015-May-21 15:27N 59°56' E 029°57'7 7.4
2015-May-21 14:33N 59°56' E 030°10'3 2.9
2015-May-21 13:33N 59°53' E 030°11'1 1.5
2015-May-21 12:33N 59°52' E 030°13'0 0.0
2015-May-21 11:33N 59°52' E 030°13'3 2.9
2015-May-21 10:30N 59°54' E 030°08'6 6.0
2015-May-21 09:33N 59°56' E 029°58'0 0.0
2015-May-21 08:30N 59°56' E 029°58'4 4.1
2015-May-21 07:33N 59°57' E 029°51'6 5.7
2015-May-21 06:30N 59°60' E 029°40'8 0.7
2015-May-20 19:21N 60°00' E 029°24'7 8.3
2015-May-20 18:33N 60°00' E 029°37'7 7.1
2015-May-20 17:33N 59°57' E 029°51'8 8.2
2015-May-20 16:33N 59°54' E 030°06'4 3.7
2015-May-20 15:33N 59°53' E 030°12'1 0.7
2015-May-20 14:30N 59°52' E 030°13'0 0.0
2015-May-20 13:24N 59°52' E 030°13'0 0.0
2015-May-20 12:33N 59°52' E 030°13'0 0.0
2015-May-20 11:33N 59°52' E 030°13'6 5.8
2015-May-20 10:33N 59°55' E 030°03'5 5.0
2015-May-20 09:33N 59°56' E 029°54'5 0.4
2015-May-19 19:27N 59°59' E 029°45'8 8.3
2015-May-19 18:30N 59°55' E 029°59'7 7.6
2015-May-19 17:33N 59°52' E 030°12'  
Track history (hours):
 
Tides and Currents Weather Stations Pressure Air Temp Water Temp Dewpoint Dewpoint Depression Visibility Wind Speed Wind Dir Waves Ship Positions

Nevskiy-22

Last reported at 2015-May-29 16:33 UTC. Time now 2015-May-29 20:31 UTC.
Position N 59°56' E 030°24'.

Length 111 m; draft 3 m.

Type: Cargo ship. MMSI: 273449940.

Date/timePositionNaut miles runAvg speedWind from/ knotsBaromVisibWave heightAir tempDewpointWater temp
2015-May-29 16:33N 59°56' E 030°24'4 4.0
2015-May-29 15:33N 59°57' E 030°16'6 5.9
2015-May-29 14:33N 59°56' E 030°05'7 6.8
2015-May-29 13:33N 59°57' E 029°51'6 0.4
2015-May-28 23:33N 59°60' E 029°40'9 8.7
2015-May-28 22:33N 59°56' E 029°56'8 8.1
2015-May-28 21:33N 59°58' E 030°12'2 1.8
2015-May-28 20:33N 59°57' E 030°15'1 0.6
2015-May-28 19:32N 59°57' E 030°16'6 1.7
2015-May-28 16:09N 59°54' E 030°26'3 5.1
2015-May-28 15:31N 59°57' E 030°24'5 4.9
2015-May-28 14:33N 59°58' E 030°14'7 6.6
2015-May-28 13:33N 59°56' E 030°02'7 6.9
2015-May-28 12:33N 59°58' E 029°48'7 6.7
2015-May-28 11:31N 60°00' E 029°36'1 0.1
2015-May-27 21:33N 60°00' E 029°33'8 7.7
2015-May-27 20:33N 59°58' E 029°48'8 7.6
2015-May-27 19:33N 59°56' E 030°03'7 7.1
2015-May-27 18:33N 59°57' E 030°17'4 0.9
2015-May-27 14:33N 59°57' E 030°24'4 4.4
2015-May-27 13:33N 59°57' E 030°15'7 7.1
2015-May-27 12:33N 59°56' E 030°02'9 8.5
2015-May-27 11:33N 59°59' E 029°46'7 0.4
2015-May-26 20:21N 59°60' E 029°33'6 7.5
2015-May-26 19:33N 59°59' E 029°45'8 8.0
2015-May-26 18:33N 59°56' E 029°59'8 7.7
2015-May-26 17:33N 59°52' E 030°13'0 0.4
2015-May-26 16:33N 59°52' E 030°13'0 0.0
2015-May-26 15:33N 59°52' E 030°13'0 0.3
2015-May-26 14:33N 59°52' E 030°13'6 5.9
2015-May-26 13:33N 59°55' E 030°02'3 2.7
2015-May-26 12:33N 59°56' E 029°57'0 0.0
2015-May-26 11:33N 59°56' E 029°57'5 5.3
2015-May-26 10:33N 59°58' E 029°47'5 0.3
2015-May-25 20:33N 59°60' E 029°39'8 8.0
2015-May-25 19:33N 59°57' E 029°54'8 8.1
2015-May-25 18:33N 59°54' E 030°08'3 3.0
2015-May-25 17:33N 59°52' E 030°13'0 0.0
2015-May-25 16:33N 59°52' E 030°13'1 0.8
2015-May-25 15:33N 59°52' E 030°12'0 0.0
2015-May-25 14:33N 59°52' E 030°12'0 0.0
2015-May-25 13:32N 59°52' E 030°12'4 4.1
2015-May-25 12:33N 59°54' E 030°05'8 7.6
2015-May-25 11:32N 59°57' E 029°51'4 0.3
2015-May-24 20:33N 59°59' E 029°44'8 8.1
2015-May-24 19:33N 59°56' E 029°59'8 7.7
2015-May-24 18:32N 59°58' E 030°14'7 0.9
2015-May-24 11:08N 59°54' E 030°26'3 5.3
2015-May-24 10:32N 59°57' E 030°24'5 4.7
2015-May-24 09:32N 59°58' E 030°14'7 6.6
2015-May-24 08:32N 59°56' E 030°02'7 7.0
2015-May-24 07:32N 59°58' E 029°48'2 0.2
2015-May-23 18:24N 59°59' E 029°45'7 8.3
2015-May-23 17:33N 59°56' E 029°58'8 8.2
2015-May-23 16:33N 59°58' E 030°14'5 1.2
2015-May-23 12:12N 59°57' E 030°24'3 4.9
2015-May-23 11:33N 59°57' E 030°18'6 5.5
2015-May-23 10:33N 59°57' E 030°07'7 6.6
2015-May-23 09:33N 59°57' E 029°53'7 0.5
2015-May-22 19:18N 59°60' E 029°41'7 8.7
2015-May-22 18:30N 59°57' E 029°54'8 7.9
2015-May-22 17:33N 59°57' E 030°09'3 3.0
2015-May-22 16:30N 59°57' E 030°15'0 0.0
2015-May-22 15:33N 59°57' E 030°15'0 0.0
2015-May-22 14:33N 59°57' E 030°15'5 4.2
2015-May-22 13:27N 59°56' E 030°24'1 0.4
2015-May-22 09:27N 59°57' E 030°22'4 3.6
2015-May-22 08:27N 59°57' E 030°15'5 5.6
2015-May-22 07:33N 59°56' E 030°05'7 6.6
2015-May-22 06:33N 59°57' E 029°52'3 0.2
2015-May-21 16:15N 59°58' E 029°47'6 7.0
2015-May-21 15:27N 59°56' E 029°57'7 7.4
2015-May-21 14:33N 59°56' E 030°10'3 2.9
2015-May-21 13:33N 59°53' E 030°11'1 1.5
2015-May-21 12:33N 59°52' E 030°13'0 0.0
2015-May-21 11:33N 59°52' E 030°13'3 2.9
2015-May-21 10:30N 59°54' E 030°08'6 6.0
2015-May-21 09:33N 59°56' E 029°58'0 0.0
2015-May-21 08:30N 59°56' E 029°58'4 4.1
2015-May-21 07:33N 59°57' E 029°51'6 5.7
2015-May-21 06:30N 59°60' E 029°40'8 0.7
2015-May-20 19:21N 60°00' E 029°24'7 8.3
2015-May-20 18:33N 60°00' E 029°37'7 7.1
2015-May-20 17:33N 59°57' E 029°51'8 8.2
2015-May-20 16:33N 59°54' E 030°06'4 3.7
2015-May-20 15:33N 59°53' E 030°12'1 0.7
2015-May-20 14:30N 59°52' E 030°13'0 0.0
2015-May-20 13:24N 59°52' E 030°13'0 0.0
2015-May-20 12:33N 59°52' E 030°13'0 0.0
2015-May-20 11:33N 59°52' E 030°13'6 5.8
2015-May-20 10:33N 59°55' E 030°03'5 5.0
2015-May-20 09:33N 59°56' E 029°54'5 0.4
2015-May-19 19:27N 59°59' E 029°45'8 8.3
2015-May-19 18:30N 59°55' E 029°59'7 7.6
2015-May-19 17:33N 59°52' E 030°12'  

Dump ship's entire track history